Terminal Aerodrome Forecast
Issued by NWS

Home | Current Version | Previous Version | Text Only | Print | Product List | Glossary Off
Versions: 1 2 3 4 5 6 7 8 9 10 11 12 13 14 15

950
FTUS43 KFGF 230924 AAA
TAFBJI
TAF AMD
KBJI 230924Z 2309/2406 00000KT 5SM BR FEW250
      TEMPO 2309/2311 1/4SM FG VV004
     FM231400 13005KT P6SM FEW250
     FM231600 13007KT P6SM FEW050
     FM232300 14009KT P6SM SCT050
     FM240500 15008KT P6SM BKN045=

USA.gov is the U.S. government's official web portal to all federal, state and local government web resources and services.